createdAt,value
2019-02-09T00:04:38.257Z,98259.56
2019-02-09T00:10:01.149Z,98251.66
2019-02-09T00:15:19.885Z,98262.50
2019-02-09T00:20:38.504Z,98262.47
2019-02-09T00:25:57.103Z,98282.03
2019-02-09T00:31:15.732Z,98276.66
2019-02-09T00:36:34.375Z,98283.61
2019-02-09T00:41:52.905Z,98287.05
2019-02-09T00:47:11.521Z,98266.61
2019-02-09T00:52:30.057Z,98252.25
2019-02-09T00:57:48.690Z,98222.31
2019-02-09T01:03:07.250Z,98214.67
2019-02-09T01:08:26.207Z,98209.34
2019-02-09T01:13:44.693Z,98226.59
2019-02-09T01:19:03.217Z,98215.61
2019-02-09T01:24:21.698Z,98207.25
2019-02-09T01:29:40.157Z,98203.09
2019-02-09T01:34:58.793Z,98181.96
2019-02-09T01:40:20.305Z,98179.22
2019-02-09T01:45:39.224Z,98174.13
2019-02-09T01:50:57.835Z,98176.32
2019-02-09T01:56:16.432Z,98198.39
2019-02-09T02:01:35.001Z,98194.50
2019-02-09T02:06:53.570Z,98182.05
2019-02-09T02:12:12.164Z,98178.70
2019-02-09T02:17:30.786Z,98175.84
2019-02-09T02:22:49.410Z,98181.41
2019-02-09T02:28:08.097Z,98173.94
2019-02-09T02:33:26.558Z,98167.05
2019-02-09T02:38:45.091Z,98162.85
2019-02-09T02:44:03.844Z,98169.43
2019-02-09T02:49:22.403Z,98165.50
2019-02-09T03:07:23.659Z,98136.78
2019-02-09T03:12:42.322Z,98137.33
2019-02-09T03:18:01.243Z,98140.27
2019-02-09T03:23:20.060Z,98153.58
2019-02-09T03:28:38.665Z,98164.41
2019-02-09T03:33:57.215Z,98176.03
2019-02-09T03:39:16.106Z,98183.73
2019-02-09T03:44:34.699Z,98197.48
2019-02-09T03:49:53.447Z,98188.57
2019-02-09T03:55:12.381Z,98201.06
2019-02-09T04:00:33.653Z,98202.63
2019-02-09T04:05:52.202Z,98195.92
2019-02-09T04:11:10.757Z,98203.94
2019-02-09T04:16:29.259Z,98197.59
2019-02-09T04:21:47.734Z,98215.53
2019-02-09T04:27:06.264Z,98225.13
2019-02-09T04:32:24.734Z,98233.58
2019-02-09T04:37:43.548Z,98230.19
2019-02-09T04:43:02.165Z,98240.77
2019-02-09T04:48:20.840Z,98242.66
2019-02-09T04:53:39.376Z,98255.03
2019-02-09T04:58:57.978Z,98258.31
2019-02-09T05:04:16.631Z,98265.93
2019-02-09T05:09:35.233Z,98277.95
2019-02-09T05:14:53.864Z,98282.42
2019-02-09T05:20:15.029Z,98296.42
2019-02-09T05:25:33.577Z,98306.27
2019-02-09T05:30:52.446Z,98302.23
2019-02-09T05:36:11.053Z,98307.20
2019-02-09T05:41:29.626Z,98298.28
2019-02-09T05:46:48.186Z,98307.31
2019-02-09T05:52:06.970Z,98322.50
2019-02-09T05:57:25.592Z,98321.44
2019-02-09T06:02:48.843Z,98342.61
2019-02-09T06:08:08.679Z,98340.14
2019-02-09T06:13:28.725Z,98328.54
2019-02-09T06:18:48.154Z,98357.71
2019-02-09T06:24:06.800Z,98364.89
2019-02-09T06:29:25.432Z,98374.87
2019-02-09T06:34:46.960Z,98376.86
2019-02-09T06:40:09.517Z,98384.34
2019-02-09T06:45:28.410Z,98371.45
2019-02-09T06:50:47.017Z,98407.93
2019-02-09T06:56:06.031Z,98407.93
2019-02-09T07:01:24.862Z,98413.87
2019-02-09T07:06:43.411Z,98433.24
2019-02-09T07:12:02.045Z,98432.66
2019-02-09T07:17:20.596Z,98417.63
2019-02-09T07:22:39.205Z,98420.88
2019-02-09T07:27:57.839Z,98446.12
2019-02-09T07:33:16.432Z,98469.78
2019-02-09T07:38:34.888Z,98476.98
2019-02-09T07:43:53.438Z,98477.86
2019-02-09T07:49:11.987Z,98490.36
2019-02-09T07:54:30.595Z,98486.05
2019-02-09T07:59:49.403Z,98498.73
2019-02-09T08:05:10.802Z,98502.68
2019-02-09T08:10:39.710Z,98510.88
2019-02-09T08:15:58.687Z,98508.33
2019-02-09T08:21:17.293Z,98536.75
2019-02-09T08:26:35.752Z,98538.16
2019-02-09T08:31:54.288Z,98547.41
2019-02-09T08:37:12.889Z,98546.86
2019-02-09T08:42:31.505Z,98544.78
2019-02-09T08:47:50.440Z,98546.30
2019-02-09T08:53:09.043Z,98561.84
2019-02-09T08:58:27.579Z,98550.25
2019-02-09T09:03:46.131Z,98555.64
2019-02-09T09:09:07.665Z,98553.47
2019-02-09T09:14:26.406Z,98567.84
2019-02-09T09:19:44.941Z,98562.30
2019-02-09T09:25:03.584Z,98570.02
2019-02-09T09:30:24.377Z,98571.26
2019-02-09T09:35:43.196Z,98576.27
2019-02-09T09:41:02.514Z,98589.98
2019-02-09T09:46:21.214Z,98597.41
2019-02-09T09:51:39.825Z,98609.05
2019-02-09T09:56:58.389Z,98588.59
2019-02-09T10:02:18.452Z,98596.98
2019-02-09T10:07:37.064Z,98594.12
2019-02-09T10:12:55.691Z,98593.11
2019-02-09T10:18:14.514Z,98615.27
2019-02-09T10:23:33.268Z,98615.27
2019-02-09T10:28:52.017Z,98609.47
2019-02-09T10:34:10.560Z,98613.27
2019-02-09T10:39:29.396Z,98614.28
2019-02-09T10:44:47.924Z,98629.56
2019-02-09T10:50:09.432Z,98629.91
2019-02-09T10:55:28.063Z,98655.32
2019-02-09T11:00:49.570Z,98639.78
2019-02-09T11:06:08.166Z,98651.96
2019-02-09T11:11:26.782Z,98648.41
2019-02-09T11:16:45.249Z,98650.91
2019-02-09T11:22:03.794Z,98651.52
2019-02-09T11:27:22.428Z,98655.05
2019-02-09T11:32:40.895Z,98644.67
2019-02-09T11:37:59.516Z,98618.15
2019-02-09T11:43:18.054Z,98635.73
2019-02-09T11:48:36.586Z,98650.13
2019-02-09T11:53:55.123Z,98628.28
2019-02-09T11:59:13.733Z,98643.11
2019-02-09T12:04:32.200Z,98636.52
2019-02-09T12:09:50.746Z,98632.81
2019-02-09T12:15:12.277Z,98649.56
2019-02-09T12:20:37.448Z,98641.78
2019-02-09T12:25:55.981Z,98643.91
2019-02-09T12:31:14.596Z,98651.55
2019-02-09T12:36:33.159Z,98654.14
2019-02-09T12:41:51.770Z,98641.67
2019-02-09T12:47:10.396Z,98656.98
2019-02-09T12:52:28.946Z,98646.84
2019-02-09T12:57:47.659Z,98662.22
2019-02-09T13:03:17.685Z,98674.73
2019-02-09T13:08:36.305Z,98668.13
2019-02-09T13:13:57.539Z,98665.18
2019-02-09T13:19:22.000Z,98668.33
2019-02-09T13:24:40.641Z,98677.66
2019-02-09T13:29:59.187Z,98682.87
2019-02-09T13:35:18.099Z,98689.34
2019-02-09T13:40:36.702Z,98676.18
2019-02-09T13:45:55.339Z,98664.47
2019-02-09T13:51:13.941Z,98675.93
2019-02-09T13:56:32.568Z,98669.17
2019-02-09T14:01:51.189Z,98667.87
2019-02-09T14:07:09.763Z,98689.87
2019-02-09T14:12:28.379Z,98684.36
2019-02-09T14:17:46.919Z,98709.47
2019-02-09T14:23:05.822Z,98714.24
2019-02-09T14:28:26.094Z,98713.08
2019-02-09T14:33:45.690Z,98734.47
2019-02-09T14:39:07.212Z,98738.37
2019-02-09T14:44:25.841Z,98793.09
2019-02-09T14:49:44.382Z,98818.09
2019-02-09T14:55:03.103Z,98765.67
2019-02-09T15:00:27.260Z,98756.77
2019-02-09T15:05:45.868Z,98775.62
2019-02-09T15:11:04.575Z,98761.54
2019-02-09T15:16:26.570Z,98771.67
2019-02-09T15:21:45.200Z,98785.34
2019-02-09T15:27:03.922Z,98779.45
2019-02-09T15:32:22.539Z,98786.25
2019-02-09T15:37:41.077Z,98785.53
2019-02-09T15:42:59.733Z,98792.66
2019-02-09T15:48:18.262Z,98790.73
2019-02-09T15:53:36.979Z,98783.61
2019-02-09T15:58:55.614Z,98796.78
2019-02-09T16:04:17.895Z,98811.79
2019-02-09T16:09:34.525Z,98802.02
2019-02-09T16:14:53.059Z,98804.99
2019-02-09T16:20:16.960Z,98810.05
2019-02-09T16:25:37.058Z,98805.77
2019-02-09T16:30:55.583Z,98825.72
2019-02-09T16:36:14.131Z,98817.97
2019-02-09T16:41:32.738Z,98833.91
2019-02-09T16:46:51.354Z,98835.44
2019-02-09T16:52:09.980Z,98838.03
2019-02-09T16:57:28.587Z,98839.16
2019-02-09T17:02:47.201Z,98844.89
2019-02-09T17:08:06.021Z,98858.40
2019-02-09T17:13:24.633Z,98856.02
2019-02-09T17:18:43.462Z,98866.66
2019-02-09T17:24:01.931Z,98881.80
2019-02-09T17:29:20.526Z,98883.80
2019-02-09T17:34:40.925Z,98887.25
2019-02-09T17:39:59.312Z,98892.17
2019-02-09T17:45:23.464Z,98887.09
2019-02-09T17:50:49.179Z,98902.93
2019-02-09T17:56:03.346Z,98909.86
2019-02-09T18:01:22.630Z,98913.12
2019-02-09T18:06:41.239Z,98916.91
2019-02-09T18:12:00.422Z,98918.12
2019-02-09T18:17:19.068Z,98939.73
2019-02-09T18:22:38.429Z,98936.47
2019-02-09T18:27:57.062Z,98937.67
2019-02-09T18:33:15.603Z,98947.04
2019-02-09T18:38:34.177Z,98948.06
2019-02-09T18:43:52.650Z,98944.52
2019-02-09T18:49:11.188Z,98948.98
2019-02-09T18:54:29.729Z,98949.80
2019-02-09T18:59:48.266Z,98938.20
2019-02-09T19:05:08.974Z,98943.08
2019-02-09T19:10:29.182Z,98952.34
2019-02-09T19:15:47.796Z,98953.78
2019-02-09T19:21:08.231Z,98955.60
2019-02-09T19:26:26.875Z,98952.95
2019-02-09T19:31:45.426Z,98967.14
2019-02-09T19:37:04.259Z,98976.11
2019-02-09T19:42:22.826Z,98957.35
2019-02-09T19:47:41.441Z,98949.22
2019-02-09T19:53:01.208Z,98964.77
2019-02-09T19:58:19.806Z,98961.50
2019-02-09T20:03:38.340Z,98975.73
2019-02-09T20:08:56.894Z,98969.73
2019-02-09T20:14:15.497Z,98977.33
2019-02-09T20:19:34.063Z,98964.95
2019-02-09T20:24:52.628Z,98950.45
2019-02-09T20:30:21.371Z,98946.39
2019-02-09T20:41:55.594Z,98957.86
2019-02-09T20:47:14.328Z,98948.44
2019-02-09T20:52:32.896Z,98951.45
2019-02-09T20:57:51.518Z,98943.03
2019-02-09T21:03:10.158Z,98935.63
2019-02-09T21:08:28.764Z,98924.69
2019-02-09T21:13:47.239Z,98933.61
2019-02-09T21:19:06.042Z,98934.11
2019-02-09T21:24:24.599Z,98928.41
2019-02-09T21:29:46.155Z,98920.49
2019-02-09T21:35:08.035Z,98932.99
2019-02-09T21:40:33.533Z,98933.30
2019-02-09T21:45:52.053Z,98927.39
2019-02-09T21:51:12.937Z,98934.80
2019-02-09T21:56:31.581Z,98930.64
2019-02-09T22:01:50.146Z,98921.33
2019-02-09T22:07:08.686Z,98926.70
2019-02-09T22:12:27.256Z,98920.61
2019-02-09T22:17:45.799Z,98903.56
2019-02-09T22:23:04.833Z,98908.14
2019-02-09T22:28:23.378Z,98896.17
2019-02-09T22:33:42.905Z,98894.45
2019-02-09T22:39:01.560Z,98891.10
2019-02-09T22:44:20.480Z,98889.88
2019-02-09T22:49:39.308Z,98882.98
2019-02-09T22:55:12.043Z,98875.88
2019-02-09T23:00:54.282Z,98874.95
2019-02-09T23:06:20.603Z,98861.47
2019-02-09T23:13:03.589Z,98858.20
2019-02-09T23:17:35.654Z,98847.77
2019-02-09T23:22:54.198Z,98832.42
2019-02-09T23:28:12.822Z,98829.05
2019-02-09T23:33:31.442Z,98816.26
2019-02-09T23:38:50.001Z,98813.51
2019-02-09T23:44:08.564Z,98796.67
2019-02-09T23:49:27.221Z,98787.87
2019-02-09T23:54:45.762Z,98787.96
